Time;durP1;ratioP1;P1;durP2;ratioP2;P2;SDS_P1;SDS_P2;PMS_P1;PMS_P2;Temp;Humidity;BMP_temperature;BMP_pressure;BME280_temperature;BME280_humidity;BME280_pressure;Samples;Min_cycle;Max_cycle;Signal;HPM_P1;HPM_P2
2023/06/13 00:00:32;;;;;;;11.95;10.40;;;19.10;68.30;;;;;;4981827;28;20026;-83
2023/06/13 00:03:09;;;;;;;12.52;10.57;;;19.00;68.20;;;;;;4983608;28;20049;-85
2023/06/13 00:05:35;;;;;;;13.27;11.77;;;19.00;68.30;;;;;;4981649;28;20065;-85
2023/06/13 00:08:02;;;;;;;17.77;12.07;;;19.00;68.40;;;;;;4984079;28;20057;-84
2023/06/13 00:10:28;;;;;;;13.68;11.00;;;18.90;68.40;;;;;;4981382;28;20038;-84
2023/06/13 00:12:54;;;;;;;14.60;10.98;;;18.90;68.50;;;;;;4984439;28;20026;-84
2023/06/13 00:15:20;;;;;;;13.93;11.73;;;18.90;68.70;;;;;;4985874;28;20030;-84
2023/06/13 00:17:48;;;;;;;13.77;11.02;;;18.80;68.70;;;;;;4979262;28;20062;-85
2023/06/13 00:20:24;;;;;;;15.48;11.45;;;18.80;68.70;;;;;;4975005;28;20555;-86
2023/06/13 00:22:50;;;;;;;11.43;10.13;;;18.80;68.80;;;;;;4982334;28;20089;-85
2023/06/13 00:25:19;;;;;;;12.07;10.80;;;18.70;68.80;;;;;;4982472;28;20141;-86
2023/06/13 00:27:45;;;;;;;11.00;9.82;;;18.70;68.90;;;;;;4980300;28;20038;-86
2023/06/13 00:30:11;;;;;;;10.82;9.52;;;18.70;68.90;;;;;;4982460;28;20351;-84
2023/06/13 00:32:37;;;;;;;11.23;10.18;;;18.70;68.90;;;;;;4983043;28;20579;-85
2023/06/13 00:35:04;;;;;;;10.02;8.88;;;18.70;68.90;;;;;;4972729;28;20042;-85
2023/06/13 00:37:34;;;;;;;10.63;9.50;;;18.60;68.80;;;;;;4982909;28;20034;-84
2023/06/13 00:40:04;;;;;;;11.40;9.02;;;18.60;68.90;;;;;;4981554;28;20042;-84
2023/06/13 00:42:31;;;;;;;11.57;10.20;;;18.60;68.90;;;;;;4976509;28;20251;-85
2023/06/13 00:45:35;;;;;;;11.32;9.82;;;18.60;69.00;;;;;;4982747;28;20047;-85
2023/06/13 00:48:07;;;;;;;14.20;10.45;;;18.50;69.00;;;;;;4945587;28;20581;-84
2023/06/13 00:50:36;;;;;;;14.00;10.82;;;18.50;68.90;;;;;;4958950;28;20035;-85
2023/06/13 00:53:16;;;;;;;12.73;10.73;;;18.50;68.90;;;;;;4979275;28;20120;-85
2023/06/13 00:55:50;;;;;;;13.95;9.60;;;18.40;69.00;;;;;;4981462;28;20542;-84
2023/06/13 00:58:17;;;;;;;11.82;10.63;;;18.40;68.90;;;;;;4996682;28;20034;-83
2023/06/13 01:00:48;;;;;;;13.68;10.55;;;18.30;68.80;;;;;;4979869;28;20054;-84
2023/06/13 01:03:15;;;;;;;15.30;11.45;;;18.30;69.00;;;;;;4981836;28;20161;-85
2023/06/13 01:05:45;;;;;;;13.23;10.60;;;18.30;69.10;;;;;;4982076;28;20112;-85
2023/06/13 01:08:24;;;;;;;15.40;11.25;;;18.30;69.20;;;;;;4982088;28;20030;-85
2023/06/13 01:11:02;;;;;;;11.95;10.73;;;18.30;69.40;;;;;;4976977;28;20516;-86
2023/06/13 01:13:34;;;;;;;12.73;10.50;;;18.20;69.10;;;;;;4976338;28;20390;-85
2023/06/13 01:16:15;;;;;;;13.88;12.05;;;18.20;69.20;;;;;;4988958;28;20078;-85
2023/06/13 01:18:43;;;;;;;15.00;11.80;;;18.20;69.30;;;;;;4994615;28;20034;-85
2023/06/13 01:21:12;;;;;;;15.82;12.07;;;18.20;69.30;;;;;;4977147;28;20393;-86
2023/06/13 01:23:52;;;;;;;15.75;13.60;;;18.10;69.20;;;;;;4980184;28;20041;-83
2023/06/13 01:26:46;;;;;;;22.27;14.75;;;18.10;69.40;;;;;;4963993;28;20474;-84
2023/06/13 01:29:18;;;;;;;19.52;15.20;;;18.00;69.40;;;;;;4975105;28;20117;-83
2023/06/13 01:31:46;;;;;;;15.93;13.50;;;18.00;69.40;;;;;;4981395;28;20037;-83
2023/06/13 01:34:14;;;;;;;15.10;13.50;;;18.00;69.40;;;;;;4982104;28;20109;-83
2023/06/13 01:36:47;;;;;;;13.95;12.13;;;18.00;69.50;;;;;;4983962;28;20036;-83
2023/06/13 01:39:17;;;;;;;15.65;12.30;;;18.00;69.60;;;;;;4982485;28;20030;-84
2023/06/13 01:41:43;;;;;;;14.40;12.38;;;17.90;69.60;;;;;;4982616;28;20316;-84
2023/06/13 01:44:16;;;;;;;14.68;13.10;;;17.90;69.70;;;;;;4979826;28;20134;-86
2023/06/13 01:47:06;;;;;;;15.75;13.40;;;17.90;69.80;;;;;;4984986;28;20133;-86
2023/06/13 01:49:52;;;;;;;14.27;12.05;;;17.80;69.80;;;;;;4989238;28;20121;-87
2023/06/13 01:53:05;;;;;;;15.20;13.05;;;17.80;69.90;;;;;;4986416;28;20109;-86
2023/06/13 01:56:11;;;;;;;15.80;13.80;;;17.80;70.00;;;;;;4959055;28;20038;-87
2023/06/13 01:59:06;;;;;;;13.52;12.32;;;17.80;69.80;;;;;;4952698;28;20041;-87
2023/06/13 02:01:35;;;;;;;15.00;13.27;;;17.70;69.80;;;;;;4983419;28;20046;-86
2023/06/13 02:04:02;;;;;;;12.98;11.70;;;17.70;69.70;;;;;;4986560;28;20057;-88
2023/06/13 02:06:30;;;;;;;13.10;11.77;;;17.70;69.80;;;;;;4985979;28;20046;-86
2023/06/13 02:08:57;;;;;;;12.05;10.73;;;17.60;69.80;;;;;;5004204;28;20323;-87
2023/06/13 02:11:23;;;;;;;15.77;11.13;;;17.60;69.90;;;;;;4990349;28;20120;-87
2023/06/13 02:13:52;;;;;;;10.95;9.85;;;17.60;70.00;;;;;;4989756;28;20045;-87
2023/06/13 02:16:18;;;;;;;11.80;9.65;;;17.50;69.90;;;;;;4980926;28;20030;-87
2023/06/13 02:18:53;;;;;;;10.93;9.82;;;17.50;70.00;;;;;;4979296;28;20038;-87
2023/06/13 02:21:19;;;;;;;10.48;9.43;;;17.40;69.90;;;;;;4983762;28;20038;-87
2023/06/13 02:23:46;;;;;;;11.68;10.57;;;17.40;69.90;;;;;;4986156;28;20142;-87
2023/06/13 02:26:16;;;;;;;13.07;10.98;;;17.40;70.00;;;;;;4984149;28;20428;-85
2023/06/13 02:28:47;;;;;;;13.18;10.60;;;17.40;70.00;;;;;;4973633;28;20099;-86
2023/06/13 02:31:17;;;;;;;15.32;11.95;;;17.40;70.10;;;;;;4984479;28;20042;-86
2023/06/13 02:33:43;;;;;;;13.50;12.05;;;17.30;70.00;;;;;;4983122;28;20027;-87
2023/06/13 02:36:12;;;;;;;10.93;9.80;;;17.30;70.00;;;;;;4979028;28;20034;-86
2023/06/13 02:38:44;;;;;;;11.98;10.80;;;17.30;70.10;;;;;;4985941;28;20125;-85
2023/06/13 02:41:11;;;;;;;13.40;11.18;;;17.30;70.20;;;;;;4985865;28;20077;-85
2023/06/13 02:43:46;;;;;;;11.98;10.75;;;17.20;70.10;;;;;;4981189;28;20102;-85
2023/06/13 02:46:12;;;;;;;15.77;11.90;;;17.20;70.20;;;;;;4983312;28;20121;-86
2023/06/13 02:48:39;;;;;;;14.50;11.85;;;17.20;70.30;;;;;;4990884;28;20027;-86
2023/06/13 02:51:26;;;;;;;13.68;12.40;;;17.20;70.40;;;;;;4986135;28;20120;-86
2023/06/13 02:53:52;;;;;;;14.50;13.10;;;17.20;70.50;;;;;;4992805;28;20035;-85
2023/06/13 02:56:19;;;;;;;15.57;13.98;;;17.20;70.70;;;;;;4989242;28;20077;-87
2023/06/13 02:58:48;;;;;;;15.43;12.82;;;17.20;70.80;;;;;;4987227;28;20034;-86
2023/06/13 03:01:15;;;;;;;17.20;13.65;;;17.10;71.20;;;;;;4989588;28;20130;-85
2023/06/13 03:03:42;;;;;;;15.02;13.02;;;17.20;71.00;;;;;;4972349;28;20027;-84
2023/06/13 03:06:11;;;;;;;14.82;13.27;;;17.10;70.90;;;;;;4997091;28;20094;-85
2023/06/13 03:08:40;;;;;;;15.15;13.75;;;17.20;71.20;;;;;;5006674;28;20030;-88
2023/06/13 03:11:10;;;;;;;15.32;13.80;;;17.10;71.10;;;;;;4989104;28;20038;-87
2023/06/13 03:13:38;;;;;;;15.68;14.02;;;17.10;71.20;;;;;;4989974;28;20398;-87
2023/06/13 03:16:08;;;;;;;17.45;15.77;;;17.10;71.30;;;;;;4986480;28;20121;-86
2023/06/13 03:18:40;;;;;;;16.15;14.63;;;17.10;71.40;;;;;;4975597;28;20449;-88
2023/06/13 03:21:07;;;;;;;16.98;15.35;;;17.00;71.30;;;;;;4972706;28;20046;-88
2023/06/13 03:23:36;;;;;;;18.98;16.30;;;17.10;71.60;;;;;;4986497;28;20042;-87
2023/06/13 03:26:06;;;;;;;17.02;15.35;;;17.00;71.50;;;;;;4974966;28;20510;-87
2023/06/13 03:28:32;;;;;;;18.95;16.95;;;17.00;71.60;;;;;;4986441;28;20038;-87
2023/06/13 03:31:00;;;;;;;18.90;17.08;;;17.00;71.70;;;;;;4989812;28;20065;-86
2023/06/13 03:33:30;;;;;;;17.80;16.08;;;17.00;71.80;;;;;;5002843;28;20050;-87
2023/06/13 03:36:00;;;;;;;20.20;18.27;;;17.00;71.90;;;;;;4982566;28;20031;-87
2023/06/13 03:38:28;;;;;;;19.70;17.80;;;17.00;72.00;;;;;;4988052;28;20554;-83
2023/06/13 03:40:55;;;;;;;20.45;18.60;;;17.00;72.10;;;;;;4988764;28;20133;-86
2023/06/13 03:43:22;;;;;;;21.42;19.02;;;17.00;72.20;;;;;;4982962;28;20038;-87
2023/06/13 03:45:48;;;;;;;20.48;18.35;;;17.00;72.30;;;;;;4974520;28;20038;-83
2023/06/13 03:48:15;;;;;;;21.38;19.38;;;17.10;72.60;;;;;;4984259;28;20304;-83
2023/06/13 03:50:41;;;;;;;20.67;18.52;;;17.10;72.60;;;;;;4986517;28;20388;-83
2023/06/13 03:53:07;;;;;;;21.23;19.23;;;17.10;72.70;;;;;;4987596;28;20038;-84
2023/06/13 03:55:36;;;;;;;21.63;19.63;;;17.00;72.60;;;;;;4988563;28;20445;-85
2023/06/13 03:58:04;;;;;;;21.08;19.08;;;17.00;73.20;;;;;;4986070;28;20549;-85
2023/06/13 04:00:50;;;;;;;22.17;20.08;;;17.10;72.90;;;;;;4945456;29;20161;-83
2023/06/13 04:03:17;;;;;;;20.85;18.95;;;17.10;73.00;;;;;;4982614;28;20429;-85
2023/06/13 04:05:43;;;;;;;20.85;18.80;;;17.00;73.40;;;;;;4983813;28;20031;-84
2023/06/13 04:08:12;;;;;;;22.33;20.23;;;17.00;73.50;;;;;;4988513;28;20030;-83
2023/06/13 04:10:38;;;;;;;22.40;20.20;;;17.00;73.00;;;;;;4986688;28;20081;-85
2023/06/13 04:13:13;;;;;;;20.95;18.85;;;17.00;73.00;;;;;;4985117;28;20034;-84
2023/06/13 04:15:40;;;;;;;20.63;18.73;;;17.00;73.10;;;;;;5002170;28;20492;-85
2023/06/13 04:18:09;;;;;;;21.88;19.67;;;17.00;73.20;;;;;;4984753;28;20094;-84
2023/06/13 04:20:36;;;;;;;19.55;17.63;;;17.00;73.20;;;;;;4984430;28;20034;-84
2023/06/13 04:23:02;;;;;;;21.58;19.63;;;17.00;73.20;;;;;;4990938;28;20038;-84
2023/06/13 04:25:32;;;;;;;20.88;18.98;;;17.00;73.30;;;;;;4986761;28;20421;-86
2023/06/13 04:27:58;;;;;;;20.05;18.25;;;17.00;73.30;;;;;;4988490;28;20105;-86
2023/06/13 04:30:28;;;;;;;21.17;19.08;;;17.00;73.40;;;;;;4987527;28;20122;-85
2023/06/13 04:32:57;;;;;;;19.73;18.00;;;17.00;73.30;;;;;;4985096;28;20034;-85
2023/06/13 04:35:28;;;;;;;21.05;19.05;;;17.00;73.40;;;;;;4980777;28;20073;-84
2023/06/13 04:37:57;;;;;;;21.85;19.58;;;17.00;73.40;;;;;;4986482;28;20092;-85
2023/06/13 04:40:31;;;;;;;21.23;19.33;;;17.00;73.50;;;;;;4987863;28;20042;-84
2023/06/13 04:43:03;;;;;;;20.80;18.90;;;17.00;73.50;;;;;;4989707;28;20205;-84
2023/06/13 04:45:33;;;;;;;21.20;19.30;;;17.00;73.50;;;;;;4996199;28;20023;-84
2023/06/13 04:48:03;;;;;;;22.55;20.38;;;17.00;73.50;;;;;;4984960;28;20148;-83
2023/06/13 04:50:33;;;;;;;21.75;19.60;;;17.00;73.50;;;;;;4982807;28;20345;-83
2023/06/13 04:52:59;;;;;;;21.98;19.95;;;17.10;73.70;;;;;;4981724;28;20042;-86
2023/06/13 04:55:32;;;;;;;22.15;20.15;;;17.10;73.70;;;;;;4979376;28;20027;-85
2023/06/13 04:58:18;;;;;;;23.08;20.88;;;17.20;73.90;;;;;;4989826;28;20768;-81
2023/06/13 05:00:56;;;;;;;23.05;20.80;;;17.10;73.60;;;;;;4992902;28;20046;-84
2023/06/13 05:03:27;;;;;;;21.65;19.70;;;17.20;73.80;;;;;;4980538;28;20128;-83
2023/06/13 05:05:53;;;;;;;24.20;21.85;;;17.20;73.80;;;;;;4982117;28;20045;-83
2023/06/13 05:08:21;;;;;;;21.92;19.77;;;17.30;74.00;;;;;;4982506;28;20048;-83
2023/06/13 05:11:07;;;;;;;21.65;19.75;;;17.30;74.00;;;;;;4978827;28;20094;-81
2023/06/13 05:13:36;;;;;;;20.92;19.02;;;17.30;73.90;;;;;;4980702;28;20251;-87
2023/06/13 05:16:02;;;;;;;22.10;20.00;;;17.30;73.90;;;;;;4980843;28;20465;-85
2023/06/13 05:18:29;;;;;;;23.27;21.17;;;17.40;74.00;;;;;;4981130;28;20161;-86
2023/06/13 05:20:59;;;;;;;21.63;19.52;;;17.50;74.20;;;;;;4977183;28;20052;-85
2023/06/13 05:23:28;;;;;;;21.67;19.58;;;17.50;74.10;;;;;;4983319;28;20472;-83
2023/06/13 05:25:55;;;;;;;23.38;21.27;;;17.60;74.30;;;;;;4990052;28;20041;-90
2023/06/13 05:28:21;;;;;;;22.95;20.95;;;17.60;74.30;;;;;;4969138;28;20213;-84
2023/06/13 05:30:48;;;;;;;22.55;20.40;;;17.70;74.30;;;;;;4974698;28;20053;-88
2023/06/13 05:33:14;;;;;;;20.88;18.75;;;17.80;74.40;;;;;;4985328;28;20042;-92
2023/06/13 05:35:40;;;;;;;21.92;19.83;;;17.90;74.50;;;;;;4979288;28;20524;-85
2023/06/13 05:38:09;;;;;;;21.90;19.88;;;18.00;74.50;;;;;;4981706;28;20088;-89
2023/06/13 05:40:36;;;;;;;22.17;20.17;;;18.10;74.50;;;;;;4984095;28;20512;-90
2023/06/13 05:43:03;;;;;;;20.73;18.60;;;18.20;74.50;;;;;;4980142;28;20157;-89
2023/06/13 05:45:29;;;;;;;20.15;18.30;;;18.30;74.50;;;;;;4984456;28;20389;-92
2023/06/13 05:47:55;;;;;;;21.65;19.73;;;18.40;74.60;;;;;;4984856;28;20112;-85
2023/06/13 05:50:21;;;;;;;20.52;18.73;;;18.60;74.70;;;;;;4978121;28;20385;-81
2023/06/13 05:53:08;;;;;;;18.80;17.00;;;18.70;74.70;;;;;;4959392;28;20050;-88
2023/06/13 05:55:34;;;;;;;19.40;17.70;;;18.90;74.70;;;;;;4985125;28;20077;-88
2023/06/13 05:58:03;;;;;;;20.20;18.20;;;19.10;74.80;;;;;;4988875;28;20065;-85
2023/06/13 06:00:30;;;;;;;19.20;17.40;;;19.30;74.80;;;;;;4985595;28;20517;-93
2023/06/13 06:02:59;;;;;;;21.20;19.08;;;19.40;74.60;;;;;;4996271;28;20049;-93
2023/06/13 06:05:29;;;;;;;19.17;17.33;;;19.60;74.60;;;;;;4984676;28;20121;-92
2023/06/13 06:07:55;;;;;;;18.65;17.05;;;19.80;74.60;;;;;;4996395;28;20037;-88
2023/06/13 06:10:21;;;;;;;19.02;17.30;;;20.00;74.60;;;;;;4983459;28;20643;-94
2023/06/13 06:12:47;;;;;;;19.40;17.67;;;20.10;74.40;;;;;;4983107;28;20571;-90
2023/06/13 06:15:13;;;;;;;17.52;15.85;;;20.30;74.40;;;;;;4988633;28;20045;-93
2023/06/13 06:17:39;;;;;;;19.52;17.65;;;20.40;74.20;;;;;;4981050;28;20050;-91
2023/06/13 06:20:09;;;;;;;18.63;16.73;;;20.60;74.20;;;;;;4982240;28;20038;-87
2023/06/13 06:22:36;;;;;;;17.63;15.93;;;20.80;74.20;;;;;;4984077;28;20061;-86
2023/06/13 06:25:19;;;;;;;19.60;16.30;;;21.00;74.00;;;;;;4983681;28;20500;-91
2023/06/13 06:27:52;;;;;;;18.80;17.10;;;21.20;73.80;;;;;;4988282;28;20029;-88
2023/06/13 06:30:18;;;;;;;17.63;16.02;;;21.40;73.50;;;;;;4975591;28;20763;-93
2023/06/13 06:32:44;;;;;;;18.80;17.15;;;21.70;73.30;;;;;;4984202;28;20089;-89
2023/06/13 06:35:16;;;;;;;17.77;16.00;;;22.00;72.90;;;;;;4984992;28;20041;-88
2023/06/13 06:37:45;;;;;;;17.90;16.30;;;22.40;72.60;;;;;;4988785;28;20033;-91
2023/06/13 06:40:17;;;;;;;17.20;15.60;;;22.80;72.30;;;;;;4992084;28;20034;-91
2023/06/13 06:42:43;;;;;;;15.75;14.20;;;23.10;71.70;;;;;;4992935;28;20030;-90
2023/06/13 06:45:12;;;;;;;16.95;15.23;;;23.40;71.30;;;;;;5013955;28;20033;-92
2023/06/13 06:47:39;;;;;;;18.05;15.52;;;23.70;70.90;;;;;;4997428;28;20046;-90
2023/06/13 06:50:05;;;;;;;17.15;15.30;;;24.00;70.40;;;;;;4991034;28;20030;-91
2023/06/13 06:52:32;;;;;;;16.60;15.05;;;24.30;70.10;;;;;;4989500;28;20726;-92
2023/06/13 06:55:01;;;;;;;15.43;13.90;;;24.50;69.60;;;;;;4995989;28;20045;-93
2023/06/13 06:57:27;;;;;;;15.57;14.15;;;24.80;69.30;;;;;;5007217;28;20041;-93
2023/06/13 06:59:53;;;;;;;14.93;13.73;;;25.10;68.90;;;;;;4988742;28;20527;-86
2023/06/13 07:02:20;;;;;;;15.10;13.70;;;25.30;68.00;;;;;;5003783;28;20046;-90
2023/06/13 07:04:49;;;;;;;16.02;14.52;;;25.60;67.20;;;;;;4985611;28;20562;-87
2023/06/13 07:07:15;;;;;;;15.15;13.82;;;25.90;66.10;;;;;;4990061;28;20774;-88
2023/06/13 07:09:41;;;;;;;15.20;13.80;;;26.30;65.40;;;;;;4994000;28;20085;-91
2023/06/13 07:12:08;;;;;;;14.38;13.20;;;26.50;64.60;;;;;;4995859;28;20034;-94
2023/06/13 07:14:34;;;;;;;12.90;11.82;;;26.90;63.80;;;;;;4993092;28;20125;-91
2023/06/13 07:17:00;;;;;;;13.23;12.05;;;27.10;63.10;;;;;;4982635;28;20269;-89
2023/06/13 07:19:27;;;;;;;16.38;12.20;;;27.40;62.30;;;;;;4983410;28;20454;-89
2023/06/13 07:21:59;;;;;;;15.27;11.80;;;27.40;62.10;;;;;;4987903;28;20042;-91
2023/06/13 07:24:32;;;;;;;13.68;12.27;;;27.50;61.90;;;;;;4989110;28;20108;-90
2023/06/13 07:26:58;;;;;;;13.57;12.25;;;27.50;61.70;;;;;;4987266;28;20541;-90
2023/06/13 07:29:42;;;;;;;13.43;12.25;;;27.50;61.20;;;;;;4989858;28;20031;-90
2023/06/13 07:32:08;;;;;;;12.23;11.20;;;27.70;60.70;;;;;;4985737;28;20043;-92
2023/06/13 07:34:45;;;;;;;11.70;10.52;;;28.10;59.60;;;;;;4984395;28;20057;-90
2023/06/13 07:37:11;;;;;;;10.25;9.25;;;28.60;58.70;;;;;;4987832;28;20037;-90
2023/06/13 07:39:38;;;;;;;11.98;8.68;;;29.00;56.60;;;;;;4994508;28;20040;-94
2023/06/13 07:42:05;;;;;;;9.60;8.70;;;29.40;55.10;;;;;;4986118;28;20050;-90
2023/06/13 07:44:51;;;;;;;9.38;8.43;;;29.80;53.90;;;;;;4965081;28;20082;-90
2023/06/13 07:47:18;;;;;;;9.45;7.82;;;30.20;52.60;;;;;;4982981;28;20050;-90
2023/06/13 07:49:44;;;;;;;10.98;8.60;;;30.60;51.40;;;;;;4987968;28;20074;-87
2023/06/13 07:52:10;;;;;;;10.40;8.30;;;31.00;50.40;;;;;;4986936;28;20034;-87
2023/06/13 07:54:38;;;;;;;9.50;8.32;;;31.30;49.30;;;;;;4991342;28;20034;-90
2023/06/13 07:57:09;;;;;;;11.50;9.02;;;31.70;48.40;;;;;;4996784;28;20087;-88
2023/06/13 07:59:41;;;;;;;8.63;7.82;;;31.90;47.80;;;;;;4989306;28;20140;-87
2023/06/13 08:02:17;;;;;;;8.55;7.78;;;32.10;47.00;;;;;;4984906;28;20065;-90
2023/06/13 08:04:45;;;;;;;7.43;6.80;;;32.00;46.80;;;;;;4987559;28;20422;-90
2023/06/13 08:07:12;;;;;;;8.95;8.05;;;31.70;47.00;;;;;;4989822;28;20034;-90
2023/06/13 08:09:38;;;;;;;8.82;8.13;;;31.30;47.20;;;;;;4987724;28;20026;-91
2023/06/13 08:12:06;;;;;;;9.88;8.20;;;30.90;47.50;;;;;;4986869;28;20414;-87
2023/06/13 08:14:32;;;;;;;8.27;7.57;;;30.60;47.80;;;;;;4985402;28;20045;-90
2023/06/13 08:16:58;;;;;;;11.85;8.55;;;30.20;48.00;;;;;;4968567;28;20039;-90
2023/06/13 08:19:33;;;;;;;8.65;7.70;;;30.00;48.10;;;;;;4986404;28;20046;-88
2023/06/13 08:22:02;;;;;;;9.63;7.00;;;29.80;48.20;;;;;;4989076;28;20137;-88
2023/06/13 08:25:07;;;;;;;9.70;7.85;;;29.60;48.00;;;;;;4951549;28;20419;-87
2023/06/13 08:27:35;;;;;;;8.23;7.53;;;29.30;48.10;;;;;;4969063;28;20058;-92
2023/06/13 08:30:06;;;;;;;8.20;7.45;;;29.20;48.10;;;;;;4958952;28;20124;-89
2023/06/13 08:32:34;;;;;;;8.98;7.82;;;29.10;48.00;;;;;;4973280;28;20360;-91
2023/06/13 08:35:04;;;;;;;8.87;8.07;;;29.00;48.10;;;;;;4965092;28;20161;-86
2023/06/13 08:37:30;;;;;;;9.80;7.45;;;29.00;48.90;;;;;;4985229;28;20027;-91
2023/06/13 08:39:56;;;;;;;9.05;7.97;;;29.00;48.40;;;;;;4991947;28;20033;-91
2023/06/13 08:42:28;;;;;;;10.50;7.07;;;28.90;48.30;;;;;;4986136;28;20084;-89
2023/06/13 08:44:57;;;;;;;11.70;7.50;;;28.90;48.20;;;;;;4984239;28;20046;-91
2023/06/13 08:47:24;;;;;;;8.43;7.63;;;28.90;48.20;;;;;;4990910;28;20049;-90
2023/06/13 08:49:52;;;;;;;10.52;8.55;;;28.90;48.10;;;;;;4988241;28;20065;-92
2023/06/13 08:52:20;;;;;;;8.93;8.02;;;29.00;48.00;;;;;;4985687;28;20046;-91
2023/06/13 08:54:51;;;;;;;7.72;7.05;;;29.00;47.90;;;;;;4988067;28;20030;-93
2023/06/13 08:57:19;;;;;;;7.40;6.80;;;29.00;47.70;;;;;;4979903;28;20034;-88
2023/06/13 08:59:51;;;;;;;7.55;6.55;;;29.10;47.70;;;;;;4984299;28;20034;-89
2023/06/13 09:02:20;;;;;;;9.17;7.23;;;29.20;47.60;;;;;;4979310;28;20061;-86
2023/06/13 09:04:53;;;;;;;7.47;6.78;;;29.40;47.60;;;;;;4979985;28;20035;-89
2023/06/13 09:07:22;;;;;;;7.03;6.43;;;29.60;47.50;;;;;;4987211;28;20038;-86
2023/06/13 09:10:12;;;;;;;7.43;6.45;;;29.80;47.40;;;;;;4972846;28;20238;-89
2023/06/13 09:12:46;;;;;;;7.00;6.30;;;29.90;47.20;;;;;;4967391;28;20046;-88
2023/06/13 09:15:21;;;;;;;7.35;6.60;;;30.10;47.10;;;;;;4988833;28;20053;-91
2023/06/13 09:17:53;;;;;;;6.60;5.90;;;30.20;47.00;;;;;;4976292;28;20050;-87
2023/06/13 09:20:20;;;;;;;7.10;5.95;;;30.40;46.90;;;;;;4981086;28;20053;-88
2023/06/13 09:22:49;;;;;;;7.43;6.72;;;30.50;46.80;;;;;;4979076;28;20144;-87
2023/06/13 09:25:17;;;;;;;6.95;6.35;;;30.70;46.80;;;;;;4980487;28;20033;-87
2023/06/13 09:27:43;;;;;;;7.55;6.85;;;30.80;46.60;;;;;;4980013;28;20045;-84
2023/06/13 09:30:14;;;;;;;6.88;6.28;;;31.00;46.50;;;;;;4979497;28;20034;-85
2023/06/13 09:32:53;;;;;;;6.93;6.10;;;31.10;46.30;;;;;;4979217;28;20058;-84
2023/06/13 09:35:19;;;;;;;7.65;6.15;;;31.20;46.10;;;;;;4979765;28;20088;-86
2023/06/13 09:37:46;;;;;;;6.90;6.20;;;31.30;46.00;;;;;;4981687;28;20076;-87
2023/06/13 09:40:12;;;;;;;7.15;6.50;;;31.40;46.40;;;;;;4982830;28;20038;-85
2023/06/13 09:42:38;;;;;;;7.35;6.75;;;31.50;45.70;;;;;;4961746;28;20125;-85
2023/06/13 09:45:10;;;;;;;6.97;6.37;;;31.60;45.60;;;;;;4983590;28;20041;-86
2023/06/13 09:47:41;;;;;;;6.78;6.13;;;31.70;45.50;;;;;;4975054;28;20303;-86
2023/06/13 09:50:08;;;;;;;7.32;6.63;;;31.80;45.20;;;;;;4979713;28;20042;-84
2023/06/13 09:52:34;;;;;;;8.77;6.20;;;31.90;45.20;;;;;;4978118;28;20849;-87
2023/06/13 09:55:07;;;;;;;7.43;6.72;;;32.00;45.00;;;;;;4984353;28;20038;-86
2023/06/13 09:57:40;;;;;;;7.38;6.68;;;32.10;44.90;;;;;;4978066;28;20129;-87
2023/06/13 10:00:08;;;;;;;9.75;6.85;;;32.20;44.70;;;;;;4978917;28;20038;-82
2023/06/13 10:02:46;;;;;;;7.15;6.55;;;32.30;44.60;;;;;;4979046;28;20049;-85
2023/06/13 10:05:30;;;;;;;10.52;7.43;;;32.40;44.50;;;;;;4977457;28;20445;-87
2023/06/13 10:07:56;;;;;;;7.90;7.03;;;32.50;44.50;;;;;;4987815;28;20037;-86
2023/06/13 10:10:22;;;;;;;7.75;6.93;;;32.60;44.30;;;;;;4980325;28;20061;-87
2023/06/13 10:12:58;;;;;;;7.80;7.20;;;32.70;44.10;;;;;;4977719;28;20105;-87
2023/06/13 10:15:45;;;;;;;8.55;6.18;;;32.80;43.90;;;;;;4980381;28;20135;-88
2023/06/13 10:18:19;;;;;;;7.13;6.43;;;32.90;43.80;;;;;;4979015;28;20183;-89
2023/06/13 10:20:48;;;;;;;6.80;6.30;;;33.10;43.80;;;;;;4992599;28;20045;-90
2023/06/13 10:23:21;;;;;;;7.22;6.60;;;33.10;43.50;;;;;;4983002;28;20030;-88
2023/06/13 10:25:54;;;;;;;6.78;6.22;;;33.20;43.20;;;;;;4986087;28;20125;-88
2023/06/13 10:28:21;;;;;;;7.32;6.57;;;33.30;43.20;;;;;;5002745;28;20934;-88
2023/06/13 10:31:26;;;;;;;7.15;6.55;;;33.40;43.00;;;;;;4967544;28;20046;-89
2023/06/13 10:34:07;;;;;;;6.78;6.03;;;33.60;42.60;;;;;;4992615;28;20045;-87
2023/06/13 10:36:36;;;;;;;7.63;6.85;;;33.70;42.50;;;;;;4979999;28;20116;-88
2023/06/13 10:39:14;;;;;;;6.65;6.15;;;33.80;42.60;;;;;;4979605;28;20026;-88
2023/06/13 10:41:40;;;;;;;7.47;6.88;;;33.90;42.30;;;;;;4977605;28;20092;-85
2023/06/13 10:44:21;;;;;;;8.45;5.60;;;34.00;42.10;;;;;;4977706;28;20382;-83
2023/06/13 10:46:48;;;;;;;9.18;7.50;;;34.10;41.90;;;;;;4978437;28;20050;-84
2023/06/13 10:49:15;;;;;;;7.50;6.80;;;34.10;41.80;;;;;;4976889;28;20043;-89
2023/06/13 10:51:45;;;;;;;8.98;6.22;;;34.10;41.50;;;;;;4978607;28;20128;-88
2023/06/13 10:54:13;;;;;;;7.65;6.80;;;34.20;41.30;;;;;;4981973;28;20128;-85
2023/06/13 10:56:43;;;;;;;7.65;6.22;;;34.30;41.10;;;;;;4979083;28;20034;-85
2023/06/13 10:59:11;;;;;;;6.88;6.38;;;34.40;40.90;;;;;;4979778;28;20137;-84
2023/06/13 11:01:43;;;;;;;8.05;6.55;;;34.50;40.90;;;;;;4982095;28;20037;-81
2023/06/13 11:04:11;;;;;;;9.40;6.90;;;34.60;40.60;;;;;;4983133;28;20038;-86
2023/06/13 11:06:39;;;;;;;7.90;7.20;;;34.60;40.50;;;;;;4982225;28;20523;-82
2023/06/13 11:09:21;;;;;;;7.45;6.85;;;34.80;41.20;;;;;;4986537;28;20478;-85
2023/06/13 11:12:00;;;;;;;8.00;7.40;;;34.90;40.20;;;;;;4985781;28;20038;-86
2023/06/13 11:14:37;;;;;;;8.60;7.50;;;35.00;40.10;;;;;;4998254;28;20409;-83
2023/06/13 11:17:04;;;;;;;7.25;6.63;;;35.10;40.10;;;;;;4979937;28;20053;-86
2023/06/13 11:19:33;;;;;;;7.45;6.93;;;35.10;40.00;;;;;;4980810;28;20130;-84
2023/06/13 11:22:03;;;;;;;8.50;7.55;;;35.20;40.40;;;;;;4965726;28;20104;-84
2023/06/13 11:24:36;;;;;;;7.28;6.68;;;35.30;39.80;;;;;;4985832;28;20073;-83
2023/06/13 11:27:04;;;;;;;7.28;6.57;;;35.40;39.70;;;;;;4983269;28;20168;-84
2023/06/13 11:29:33;;;;;;;8.15;7.45;;;35.50;39.70;;;;;;4984614;28;20034;-83
2023/06/13 11:32:22;;;;;;;7.93;7.22;;;35.60;39.60;;;;;;4935330;28;20183;-82
2023/06/13 11:34:51;;;;;;;7.07;6.47;;;35.70;39.50;;;;;;4979452;28;20062;-87
2023/06/13 11:37:36;;;;;;;7.90;7.20;;;35.80;39.40;;;;;;4984007;28;20046;-85
2023/06/13 11:40:06;;;;;;;7.90;7.07;;;35.80;39.10;;;;;;4982721;28;20038;-85
2023/06/13 11:42:32;;;;;;;8.38;7.60;;;35.90;39.20;;;;;;4964446;28;20046;-85
2023/06/13 11:45:25;;;;;;;7.80;7.18;;;36.00;39.20;;;;;;4975793;28;20054;-87
2023/06/13 11:47:58;;;;;;;7.53;6.90;;;36.10;39.10;;;;;;4970375;28;20066;-85
2023/06/13 11:50:28;;;;;;;7.95;7.25;;;36.20;38.90;;;;;;4977270;28;20038;-85
2023/06/13 11:53:03;;;;;;;8.65;7.70;;;36.30;39.00;;;;;;4982699;28;20124;-87
2023/06/13 11:55:29;;;;;;;7.03;6.43;;;36.30;38.60;;;;;;4986534;28;20076;-87
2023/06/13 11:57:56;;;;;;;7.80;7.03;;;36.40;38.80;;;;;;4984831;28;20088;-87
2023/06/13 12:00:26;;;;;;;8.25;7.50;;;36.50;38.70;;;;;;5006586;28;20034;-86
2023/06/13 12:02:53;;;;;;;9.30;7.78;;;36.50;38.60;;;;;;4988503;28;20034;-87
2023/06/13 12:05:19;;;;;;;8.63;7.53;;;36.60;38.50;;;;;;4991971;28;20030;-87
2023/06/13 12:07:45;;;;;;;7.68;6.95;;;36.60;38.40;;;;;;4995602;28;20057;-84
2023/06/13 12:10:15;;;;;;;7.97;7.28;;;36.70;38.40;;;;;;4991289;28;20037;-84
2023/06/13 12:12:57;;;;;;;8.07;7.45;;;36.70;38.30;;;;;;4985955;28;20049;-85
2023/06/13 12:15:27;;;;;;;8.13;7.18;;;36.80;38.00;;;;;;4986072;28;20101;-82
2023/06/13 12:18:02;;;;;;;7.40;6.80;;;36.80;38.10;;;;;;4987147;28;20046;-88
2023/06/13 12:20:29;;;;;;;6.95;6.32;;;36.90;38.10;;;;;;4985749;28;20034;-85
2023/06/13 12:22:59;;;;;;;7.13;6.43;;;37.00;38.70;;;;;;4989548;28;20043;-86
2023/06/13 12:25:33;;;;;;;8.38;6.80;;;37.00;37.90;;;;;;4991200;28;20034;-88
2023/06/13 12:28:02;;;;;;;7.07;6.38;;;37.10;37.80;;;;;;5004379;28;20049;-84
2023/06/13 12:30:35;;;;;;;8.15;7.38;;;37.10;37.70;;;;;;4980057;28;20066;-88
2023/06/13 12:33:04;;;;;;;7.80;7.00;;;37.20;37.60;;;;;;4993463;28;20057;-87
2023/06/13 12:35:47;;;;;;;6.82;6.32;;;37.30;37.60;;;;;;4980216;28;20041;-86
2023/06/13 12:38:14;;;;;;;6.57;5.95;;;37.30;37.50;;;;;;4997451;28;20130;-86
2023/06/13 12:40:40;;;;;;;6.63;6.03;;;37.40;37.40;;;;;;4980918;28;20050;-86
2023/06/13 12:43:15;;;;;;;6.93;6.30;;;37.50;37.30;;;;;;4981180;28;20552;-86
2023/06/13 12:45:45;;;;;;;6.35;5.70;;;37.70;37.20;;;;;;4982294;28;20053;-86
2023/06/13 12:48:18;;;;;;;7.15;6.55;;;37.80;37.10;;;;;;4958752;28;20137;-85
2023/06/13 12:50:49;;;;;;;6.55;6.05;;;37.90;36.80;;;;;;4978906;28;20042;-86
2023/06/13 12:53:22;;;;;;;7.30;6.60;;;38.00;36.80;;;;;;4974568;28;20035;-87